sensor_id;sensor_type;location;lat;lon;timestamp;P1;durP1;ratioP1;P2;durP2;ratioP2
19179;SDS011;9722;48.754;8.868;2022-12-10T00:01:51;19.23;;;15.83;;
19179;SDS011;9722;48.754;8.868;2022-12-10T00:05:11;24.03;;;16.67;;
19179;SDS011;9722;48.754;8.868;2022-12-10T00:08:33;18.60;;;16.47;;
19179;SDS011;9722;48.754;8.868;2022-12-10T00:11:54;23.30;;;15.63;;
19179;SDS011;9722;48.754;8.868;2022-12-10T00:15:14;21.93;;;16.77;;
19179;SDS011;9722;48.754;8.868;2022-12-10T00:18:36;23.37;;;16.30;;
19179;SDS011;9722;48.754;8.868;2022-12-10T00:21:57;20.73;;;16.17;;
19179;SDS011;9722;48.754;8.868;2022-12-10T00:25:17;19.40;;;15.30;;
19179;SDS011;9722;48.754;8.868;2022-12-10T00:28:38;20.17;;;15.60;;
19179;SDS011;9722;48.754;8.868;2022-12-10T00:31:59;19.37;;;15.23;;
19179;SDS011;9722;48.754;8.868;2022-12-10T00:35:20;17.93;;;14.93;;
19179;SDS011;9722;48.754;8.868;2022-12-10T00:38:41;19.13;;;14.73;;
19179;SDS011;9722;48.754;8.868;2022-12-10T00:42:02;18.70;;;14.90;;
19179;SDS011;9722;48.754;8.868;2022-12-10T00:45:23;19.47;;;16.30;;
19179;SDS011;9722;48.754;8.868;2022-12-10T00:48:43;22.27;;;17.20;;
19179;SDS011;9722;48.754;8.868;2022-12-10T00:52:04;20.73;;;15.67;;
19179;SDS011;9722;48.754;8.868;2022-12-10T00:55:24;21.33;;;15.90;;
19179;SDS011;9722;48.754;8.868;2022-12-10T00:58:45;18.63;;;15.50;;
19179;SDS011;9722;48.754;8.868;2022-12-10T01:02:07;20.10;;;16.07;;
19179;SDS011;9722;48.754;8.868;2022-12-10T01:05:27;19.37;;;15.17;;
19179;SDS011;9722;48.754;8.868;2022-12-10T01:08:48;21.03;;;16.83;;
19179;SDS011;9722;48.754;8.868;2022-12-10T01:12:10;19.03;;;14.13;;
19179;SDS011;9722;48.754;8.868;2022-12-10T01:15:31;21.73;;;15.57;;
19179;SDS011;9722;48.754;8.868;2022-12-10T01:18:55;19.37;;;15.50;;
19179;SDS011;9722;48.754;8.868;2022-12-10T01:22:17;17.67;;;14.97;;
19179;SDS011;9722;48.754;8.868;2022-12-10T01:25:37;21.90;;;16.10;;
19179;SDS011;9722;48.754;8.868;2022-12-10T01:28:58;18.03;;;15.37;;
19179;SDS011;9722;48.754;8.868;2022-12-10T01:32:19;18.07;;;14.17;;
19179;SDS011;9722;48.754;8.868;2022-12-10T01:35:40;17.50;;;14.90;;
19179;SDS011;9722;48.754;8.868;2022-12-10T01:39:01;18.23;;;14.50;;
19179;SDS011;9722;48.754;8.868;2022-12-10T01:42:24;21.23;;;15.73;;
19179;SDS011;9722;48.754;8.868;2022-12-10T01:45:44;17.30;;;15.03;;
19179;SDS011;9722;48.754;8.868;2022-12-10T01:49:06;21.30;;;15.37;;
19179;SDS011;9722;48.754;8.868;2022-12-10T01:52:31;18.30;;;14.30;;
19179;SDS011;9722;48.754;8.868;2022-12-10T01:55:51;18.00;;;15.03;;
19179;SDS011;9722;48.754;8.868;2022-12-10T01:59:12;20.07;;;15.20;;
19179;SDS011;9722;48.754;8.868;2022-12-10T02:06:06;20.83;;;15.10;;
19179;SDS011;9722;48.754;8.868;2022-12-10T02:17:40;18.33;;;14.70;;
19179;SDS011;9722;48.754;8.868;2022-12-10T02:21:06;19.70;;;14.10;;
19179;SDS011;9722;48.754;8.868;2022-12-10T02:24:33;17.27;;;13.93;;
19179;SDS011;9722;48.754;8.868;2022-12-10T02:31:42;21.20;;;16.00;;
19179;SDS011;9722;48.754;8.868;2022-12-10T02:35:10;18.70;;;14.63;;
19179;SDS011;9722;48.754;8.868;2022-12-10T02:38:40;17.40;;;13.83;;
19179;SDS011;9722;48.754;8.868;2022-12-10T02:42:03;18.17;;;15.30;;
19179;SDS011;9722;48.754;8.868;2022-12-10T02:45:25;19.17;;;14.63;;
19179;SDS011;9722;48.754;8.868;2022-12-10T02:48:49;17.43;;;13.50;;
19179;SDS011;9722;48.754;8.868;2022-12-10T02:52:14;21.47;;;14.93;;
19179;SDS011;9722;48.754;8.868;2022-12-10T03:00:12;16.93;;;14.13;;
19179;SDS011;9722;48.754;8.868;2022-12-10T03:06:41;17.97;;;14.67;;
19179;SDS011;9722;48.754;8.868;2022-12-10T03:10:21;23.30;;;16.77;;
19179;SDS011;9722;48.754;8.868;2022-12-10T03:14:00;16.87;;;14.50;;
19179;SDS011;9722;48.754;8.868;2022-12-10T03:17:25;19.37;;;14.53;;
19179;SDS011;9722;48.754;8.868;2022-12-10T03:20:48;15.47;;;13.83;;
19179;SDS011;9722;48.754;8.868;2022-12-10T03:24:12;18.13;;;14.60;;
19179;SDS011;9722;48.754;8.868;2022-12-10T03:27:35;19.67;;;14.97;;
19179;SDS011;9722;48.754;8.868;2022-12-10T03:30:59;18.87;;;13.80;;
19179;SDS011;9722;48.754;8.868;2022-12-10T03:34:20;16.40;;;13.77;;
19179;SDS011;9722;48.754;8.868;2022-12-10T03:37:42;20.90;;;15.33;;
19179;SDS011;9722;48.754;8.868;2022-12-10T03:41:03;20.23;;;14.47;;
19179;SDS011;9722;48.754;8.868;2022-12-10T03:44:31;19.13;;;14.63;;
19179;SDS011;9722;48.754;8.868;2022-12-10T03:47:53;18.20;;;14.33;;
19179;SDS011;9722;48.754;8.868;2022-12-10T03:51:13;19.70;;;14.23;;
19179;SDS011;9722;48.754;8.868;2022-12-10T03:54:35;16.03;;;13.77;;
19179;SDS011;9722;48.754;8.868;2022-12-10T03:57:55;15.27;;;13.07;;
19179;SDS011;9722;48.754;8.868;2022-12-10T04:01:16;18.20;;;14.07;;
19179;SDS011;9722;48.754;8.868;2022-12-10T04:04:37;16.37;;;13.33;;
19179;SDS011;9722;48.754;8.868;2022-12-10T04:07:57;17.17;;;14.17;;
19179;SDS011;9722;48.754;8.868;2022-12-10T04:11:18;16.17;;;14.07;;
19179;SDS011;9722;48.754;8.868;2022-12-10T04:14:39;19.27;;;14.23;;
19179;SDS011;9722;48.754;8.868;2022-12-10T04:18:18;14.63;;;13.00;;
19179;SDS011;9722;48.754;8.868;2022-12-10T04:21:38;17.20;;;14.63;;
19179;SDS011;9722;48.754;8.868;2022-12-10T04:25:21;14.90;;;13.30;;
19179;SDS011;9722;48.754;8.868;2022-12-10T04:29:01;16.13;;;13.87;;
19179;SDS011;9722;48.754;8.868;2022-12-10T04:32:22;17.90;;;14.90;;
19179;SDS011;9722;48.754;8.868;2022-12-10T04:35:44;17.57;;;14.60;;
19179;SDS011;9722;48.754;8.868;2022-12-10T04:39:04;18.27;;;14.67;;
19179;SDS011;9722;48.754;8.868;2022-12-10T04:42:25;16.60;;;14.63;;
19179;SDS011;9722;48.754;8.868;2022-12-10T04:45:45;19.47;;;14.33;;
19179;SDS011;9722;48.754;8.868;2022-12-10T04:49:06;18.17;;;14.47;;
19179;SDS011;9722;48.754;8.868;2022-12-10T04:52:27;20.37;;;14.90;;
19179;SDS011;9722;48.754;8.868;2022-12-10T04:55:47;15.20;;;13.57;;
19179;SDS011;9722;48.754;8.868;2022-12-10T04:59:09;16.00;;;14.37;;
19179;SDS011;9722;48.754;8.868;2022-12-10T05:02:29;15.87;;;14.17;;
19179;SDS011;9722;48.754;8.868;2022-12-10T05:05:50;18.03;;;14.97;;
19179;SDS011;9722;48.754;8.868;2022-12-10T05:09:11;17.77;;;14.17;;
19179;SDS011;9722;48.754;8.868;2022-12-10T05:12:32;17.17;;;13.97;;
19179;SDS011;9722;48.754;8.868;2022-12-10T05:15:52;18.30;;;14.53;;
19179;SDS011;9722;48.754;8.868;2022-12-10T05:19:13;22.40;;;14.03;;
19179;SDS011;9722;48.754;8.868;2022-12-10T05:22:33;16.77;;;13.60;;
19179;SDS011;9722;48.754;8.868;2022-12-10T05:26:14;17.30;;;14.57;;
19179;SDS011;9722;48.754;8.868;2022-12-10T05:29:42;18.50;;;14.30;;
19179;SDS011;9722;48.754;8.868;2022-12-10T05:33:02;16.77;;;14.17;;
19179;SDS011;9722;48.754;8.868;2022-12-10T05:36:24;20.97;;;14.10;;
19179;SDS011;9722;48.754;8.868;2022-12-10T05:39:47;19.27;;;15.17;;
19179;SDS011;9722;48.754;8.868;2022-12-10T05:43:07;16.97;;;13.80;;
19179;SDS011;9722;48.754;8.868;2022-12-10T05:46:30;19.93;;;15.30;;
19179;SDS011;9722;48.754;8.868;2022-12-10T05:49:51;19.43;;;14.73;;
19179;SDS011;9722;48.754;8.868;2022-12-10T05:53:12;18.57;;;14.50;;
19179;SDS011;9722;48.754;8.868;2022-12-10T05:56:34;16.13;;;14.20;;
19179;SDS011;9722;48.754;8.868;2022-12-10T05:59:55;20.47;;;14.53;;
19179;SDS011;9722;48.754;8.868;2022-12-10T06:03:16;21.80;;;15.57;;
19179;SDS011;9722;48.754;8.868;2022-12-10T06:06:37;17.13;;;15.10;;
19179;SDS011;9722;48.754;8.868;2022-12-10T06:09:58;17.53;;;14.70;;
19179;SDS011;9722;48.754;8.868;2022-12-10T06:13:19;20.33;;;14.97;;
19179;SDS011;9722;48.754;8.868;2022-12-10T06:16:40;17.90;;;14.47;;
19179;SDS011;9722;48.754;8.868;2022-12-10T06:20:01;18.93;;;14.70;;
19179;SDS011;9722;48.754;8.868;2022-12-10T06:23:21;18.43;;;14.47;;
19179;SDS011;9722;48.754;8.868;2022-12-10T06:26:42;21.63;;;15.63;;
19179;SDS011;9722;48.754;8.868;2022-12-10T06:30:03;20.53;;;14.93;;
19179;SDS011;9722;48.754;8.868;2022-12-10T06:33:24;19.20;;;14.67;;
19179;SDS011;9722;48.754;8.868;2022-12-10T06:36:45;20.30;;;15.37;;
19179;SDS011;9722;48.754;8.868;2022-12-10T06:40:05;27.83;;;19.27;;
19179;SDS011;9722;48.754;8.868;2022-12-10T06:43:29;28.10;;;19.90;;
19179;SDS011;9722;48.754;8.868;2022-12-10T06:46:50;26.07;;;18.87;;
19179;SDS011;9722;48.754;8.868;2022-12-10T06:50:10;22.43;;;16.73;;
19179;SDS011;9722;48.754;8.868;2022-12-10T06:53:31;22.90;;;16.63;;
19179;SDS011;9722;48.754;8.868;2022-12-10T06:56:53;23.43;;;15.57;;
19179;SDS011;9722;48.754;8.868;2022-12-10T07:00:13;25.87;;;17.40;;
19179;SDS011;9722;48.754;8.868;2022-12-10T07:03:34;24.97;;;17.37;;
19179;SDS011;9722;48.754;8.868;2022-12-10T07:06:55;26.20;;;17.63;;
19179;SDS011;9722;48.754;8.868;2022-12-10T07:10:15;23.47;;;16.57;;
19179;SDS011;9722;48.754;8.868;2022-12-10T07:13:36;20.43;;;15.90;;
19179;SDS011;9722;48.754;8.868;2022-12-10T07:16:57;20.40;;;15.87;;
19179;SDS011;9722;48.754;8.868;2022-12-10T07:20:17;20.27;;;16.37;;
19179;SDS011;9722;48.754;8.868;2022-12-10T07:23:38;23.53;;;17.43;;
19179;SDS011;9722;48.754;8.868;2022-12-10T07:26:59;21.53;;;16.07;;
19179;SDS011;9722;48.754;8.868;2022-12-10T07:30:19;18.97;;;15.40;;
19179;SDS011;9722;48.754;8.868;2022-12-10T07:33:41;21.87;;;16.47;;
19179;SDS011;9722;48.754;8.868;2022-12-10T07:37:01;21.87;;;15.80;;
19179;SDS011;9722;48.754;8.868;2022-12-10T07:40:22;21.40;;;15.27;;
19179;SDS011;9722;48.754;8.868;2022-12-10T07:43:43;19.27;;;15.33;;
19179;SDS011;9722;48.754;8.868;2022-12-10T07:47:05;17.33;;;14.90;;
19179;SDS011;9722;48.754;8.868;2022-12-10T07:50:25;18.97;;;15.80;;
19179;SDS011;9722;48.754;8.868;2022-12-10T07:53:46;20.13;;;17.43;;
19179;SDS011;9722;48.754;8.868;2022-12-10T07:57:08;19.80;;;14.87;;
19179;SDS011;9722;48.754;8.868;2022-12-10T08:00:28;23.13;;;16.73;;
19179;SDS011;9722;48.754;8.868;2022-12-10T08:03:49;23.10;;;17.97;;
19179;SDS011;9722;48.754;8.868;2022-12-10T08:07:10;25.60;;;17.20;;
19179;SDS011;9722;48.754;8.868;2022-12-10T08:10:34;26.93;;;18.57;;
19179;SDS011;9722;48.754;8.868;2022-12-10T08:13:58;25.10;;;19.27;;
19179;SDS011;9722;48.754;8.868;2022-12-10T08:17:19;21.73;;;17.97;;
19179;SDS011;9722;48.754;8.868;2022-12-10T08:20:39;23.20;;;17.93;;
19179;SDS011;9722;48.754;8.868;2022-12-10T08:24:00;23.37;;;17.60;;
19179;SDS011;9722;48.754;8.868;2022-12-10T08:27:21;19.93;;;16.13;;
19179;SDS011;9722;48.754;8.868;2022-12-10T08:30:45;20.87;;;15.83;;
19179;SDS011;9722;48.754;8.868;2022-12-10T08:34:13;20.93;;;15.57;;
19179;SDS011;9722;48.754;8.868;2022-12-10T08:37:35;20.07;;;16.10;;
19179;SDS011;9722;48.754;8.868;2022-12-10T08:40:55;18.03;;;14.30;;
19179;SDS011;9722;48.754;8.868;2022-12-10T08:44:16;20.00;;;15.43;;
19179;SDS011;9722;48.754;8.868;2022-12-10T08:47:37;18.60;;;15.40;;
19179;SDS011;9722;48.754;8.868;2022-12-10T08:50:57;18.00;;;15.03;;
19179;SDS011;9722;48.754;8.868;2022-12-10T08:54:18;19.37;;;15.80;;
19179;SDS011;9722;48.754;8.868;2022-12-10T08:57:38;21.13;;;15.50;;
19179;SDS011;9722;48.754;8.868;2022-12-10T09:00:59;19.57;;;15.47;;
19179;SDS011;9722;48.754;8.868;2022-12-10T09:04:24;18.43;;;15.70;;
19179;SDS011;9722;48.754;8.868;2022-12-10T09:07:45;19.80;;;15.37;;
19179;SDS011;9722;48.754;8.868;2022-12-10T09:11:09;18.60;;;15.20;;
19179;SDS011;9722;48.754;8.868;2022-12-10T09:14:34;18.33;;;15.30;;
19179;SDS011;9722;48.754;8.868;2022-12-10T09:17:55;18.70;;;15.37;;
19179;SDS011;9722;48.754;8.868;2022-12-10T09:21:16;20.90;;;15.73;;
19179;SDS011;9722;48.754;8.868;2022-12-10T09:24:37;20.33;;;16.07;;
19179;SDS011;9722;48.754;8.868;2022-12-10T09:27:57;18.43;;;13.90;;
19179;SDS011;9722;48.754;8.868;2022-12-10T09:31:18;17.83;;;14.47;;
19179;SDS011;9722;48.754;8.868;2022-12-10T09:34:39;19.53;;;16.07;;
19179;SDS011;9722;48.754;8.868;2022-12-10T09:38:00;30.93;;;21.83;;
19179;SDS011;9722;48.754;8.868;2022-12-10T09:52:24;17.40;;;15.13;;
19179;SDS011;9722;48.754;8.868;2022-12-10T09:55:47;20.53;;;15.20;;
19179;SDS011;9722;48.754;8.868;2022-12-10T09:59:17;23.50;;;18.30;;
19179;SDS011;9722;48.754;8.868;2022-12-10T10:03:05;18.70;;;14.27;;
19179;SDS011;9722;48.754;8.868;2022-12-10T10:06:32;19.00;;;15.70;;
19179;SDS011;9722;48.754;8.868;2022-12-10T10:09:55;20.63;;;14.57;;
19179;SDS011;9722;48.754;8.868;2022-12-10T10:13:25;16.37;;;13.80;;
19179;SDS011;9722;48.754;8.868;2022-12-10T10:17:01;17.00;;;13.67;;
19179;SDS011;9722;48.754;8.868;2022-12-10T10:20:28;16.63;;;13.70;;
19179;SDS011;9722;48.754;8.868;2022-12-10T10:23:50;19.57;;;15.47;;
19179;SDS011;9722;48.754;8.868;2022-12-10T10:27:12;20.17;;;15.10;;
19179;SDS011;9722;48.754;8.868;2022-12-10T10:30:35;22.60;;;14.90;;
19179;SDS011;9722;48.754;8.868;2022-12-10T10:34:00;23.03;;;15.60;;
19179;SDS011;9722;48.754;8.868;2022-12-10T10:40:52;18.07;;;14.50;;
19179;SDS011;9722;48.754;8.868;2022-12-10T10:44:21;18.20;;;13.93;;
19179;SDS011;9722;48.754;8.868;2022-12-10T10:47:44;18.03;;;14.63;;
19179;SDS011;9722;48.754;8.868;2022-12-10T10:51:15;17.30;;;13.17;;
19179;SDS011;9722;48.754;8.868;2022-12-10T10:57:56;15.10;;;13.37;;
19179;SDS011;9722;48.754;8.868;2022-12-10T11:01:17;15.50;;;13.30;;
19179;SDS011;9722;48.754;8.868;2022-12-10T11:04:46;15.43;;;12.93;;
19179;SDS011;9722;48.754;8.868;2022-12-10T11:08:18;14.57;;;13.13;;
19179;SDS011;9722;48.754;8.868;2022-12-10T11:11:40;14.00;;;12.50;;
19179;SDS011;9722;48.754;8.868;2022-12-10T11:15:01;15.37;;;13.13;;
19179;SDS011;9722;48.754;8.868;2022-12-10T11:18:34;13.77;;;12.37;;
19179;SDS011;9722;48.754;8.868;2022-12-10T11:22:05;13.50;;;12.30;;
19179;SDS011;9722;48.754;8.868;2022-12-10T11:37:18;15.47;;;12.23;;
19179;SDS011;9722;48.754;8.868;2022-12-10T11:41:11;12.20;;;10.83;;
19179;SDS011;9722;48.754;8.868;2022-12-10T11:59:26;13.17;;;11.77;;
19179;SDS011;9722;48.754;8.868;2022-12-10T12:14:47;12.97;;;11.60;;
19179;SDS011;9722;48.754;8.868;2022-12-10T12:17:52;14.53;;;11.90;;
19179;SDS011;9722;48.754;8.868;2022-12-10T12:21:17;14.90;;;11.60;;
19179;SDS011;9722;48.754;8.868;2022-12-10T12:24:38;12.73;;;11.43;;
19179;SDS011;9722;48.754;8.868;2022-12-10T12:31:37;18.00;;;12.97;;
19179;SDS011;9722;48.754;8.868;2022-12-10T12:38:41;11.90;;;10.63;;
19179;SDS011;9722;48.754;8.868;2022-12-10T12:42:24;12.43;;;11.13;;
19179;SDS011;9722;48.754;8.868;2022-12-10T12:45:51;12.73;;;11.20;;
19179;SDS011;9722;48.754;8.868;2022-12-10T12:49:21;11.73;;;10.53;;
19179;SDS011;9722;48.754;8.868;2022-12-10T12:52:53;15.20;;;11.83;;
19179;SDS011;9722;48.754;8.868;2022-12-10T12:56:37;12.73;;;11.23;;
19179;SDS011;9722;48.754;8.868;2022-12-10T13:00:12;14.50;;;11.83;;
19179;SDS011;9722;48.754;8.868;2022-12-10T13:03:41;14.70;;;12.30;;
19179;SDS011;9722;48.754;8.868;2022-12-10T13:10:52;13.30;;;12.00;;
19179;SDS011;9722;48.754;8.868;2022-12-10T13:14:28;14.00;;;12.20;;
19179;SDS011;9722;48.754;8.868;2022-12-10T13:21:30;16.57;;;13.17;;
19179;SDS011;9722;48.754;8.868;2022-12-10T13:31:57;12.90;;;10.77;;
19179;SDS011;9722;48.754;8.868;2022-12-10T13:35:26;14.60;;;11.70;;
19179;SDS011;9722;48.754;8.868;2022-12-10T13:42:33;18.47;;;14.13;;
19179;SDS011;9722;48.754;8.868;2022-12-10T13:46:50;12.83;;;11.53;;
19179;SDS011;9722;48.754;8.868;2022-12-10T13:50:19;12.80;;;11.47;;
19179;SDS011;9722;48.754;8.868;2022-12-10T13:53:47;15.87;;;12.23;;
19179;SDS011;9722;48.754;8.868;2022-12-10T14:00:58;13.50;;;11.63;;
19179;SDS011;9722;48.754;8.868;2022-12-10T14:04:41;13.00;;;11.60;;
19179;SDS011;9722;48.754;8.868;2022-12-10T14:08:26;17.83;;;13.33;;
19179;SDS011;9722;48.754;8.868;2022-12-10T14:11:59;17.37;;;12.97;;
19179;SDS011;9722;48.754;8.868;2022-12-10T14:15:24;14.90;;;12.90;;
19179;SDS011;9722;48.754;8.868;2022-12-10T14:18:49;12.90;;;11.60;;
19179;SDS011;9722;48.754;8.868;2022-12-10T14:22:18;12.90;;;11.60;;
19179;SDS011;9722;48.754;8.868;2022-12-10T14:25:46;12.97;;;11.67;;
19179;SDS011;9722;48.754;8.868;2022-12-10T14:32:34;14.23;;;11.63;;
19179;SDS011;9722;48.754;8.868;2022-12-10T14:36:02;12.43;;;11.13;;
19179;SDS011;9722;48.754;8.868;2022-12-10T14:39:27;14.17;;;12.67;;
19179;SDS011;9722;48.754;8.868;2022-12-10T14:42:50;12.73;;;11.40;;
19179;SDS011;9722;48.754;8.868;2022-12-10T14:46:22;13.13;;;11.73;;
19179;SDS011;9722;48.754;8.868;2022-12-10T14:49:48;13.40;;;11.97;;
19179;SDS011;9722;48.754;8.868;2022-12-10T14:53:28;13.40;;;12.10;;
19179;SDS011;9722;48.754;8.868;2022-12-10T14:56:49;15.10;;;12.63;;
19179;SDS011;9722;48.754;8.868;2022-12-10T15:00:18;17.97;;;14.43;;
19179;SDS011;9722;48.754;8.868;2022-12-10T15:03:43;13.10;;;11.80;;
19179;SDS011;9722;48.754;8.868;2022-12-10T15:07:07;13.00;;;11.70;;
19179;SDS011;9722;48.754;8.868;2022-12-10T15:10:40;15.30;;;11.67;;
19179;SDS011;9722;48.754;8.868;2022-12-10T15:14:04;19.50;;;15.40;;
19179;SDS011;9722;48.754;8.868;2022-12-10T15:17:42;13.90;;;12.50;;
19179;SDS011;9722;48.754;8.868;2022-12-10T15:21:19;17.13;;;12.20;;
19179;SDS011;9722;48.754;8.868;2022-12-10T15:24:41;11.40;;;10.33;;
19179;SDS011;9722;48.754;8.868;2022-12-10T15:28:02;14.47;;;12.90;;
19179;SDS011;9722;48.754;8.868;2022-12-10T15:34:48;11.97;;;10.63;;
19179;SDS011;9722;48.754;8.868;2022-12-10T15:38:13;12.87;;;10.93;;
19179;SDS011;9722;48.754;8.868;2022-12-10T15:45:04;11.73;;;10.53;;
19179;SDS011;9722;48.754;8.868;2022-12-10T15:48:40;14.27;;;11.67;;
19179;SDS011;9722;48.754;8.868;2022-12-10T15:52:01;12.57;;;10.77;;
19179;SDS011;9722;48.754;8.868;2022-12-10T15:55:22;15.10;;;11.10;;
19179;SDS011;9722;48.754;8.868;2022-12-10T15:58:43;13.00;;;10.80;;
19179;SDS011;9722;48.754;8.868;2022-12-10T16:02:03;13.17;;;10.50;;
19179;SDS011;9722;48.754;8.868;2022-12-10T16:05:39;11.17;;;9.97;;
19179;SDS011;9722;48.754;8.868;2022-12-10T16:09:01;11.77;;;10.03;;
19179;SDS011;9722;48.754;8.868;2022-12-10T16:12:21;12.50;;;10.90;;
19179;SDS011;9722;48.754;8.868;2022-12-10T16:15:49;13.13;;;9.77;;
19179;SDS011;9722;48.754;8.868;2022-12-10T16:19:17;11.40;;;10.27;;
19179;SDS011;9722;48.754;8.868;2022-12-10T16:22:37;10.67;;;9.57;;
19179;SDS011;9722;48.754;8.868;2022-12-10T16:25:58;10.07;;;8.70;;
19179;SDS011;9722;48.754;8.868;2022-12-10T16:29:19;23.80;;;16.27;;
19179;SDS011;9722;48.754;8.868;2022-12-10T16:32:41;15.23;;;12.53;;
19179;SDS011;9722;48.754;8.868;2022-12-10T16:36:02;13.50;;;12.17;;
19179;SDS011;9722;48.754;8.868;2022-12-10T16:39:22;15.33;;;13.13;;
19179;SDS011;9722;48.754;8.868;2022-12-10T16:42:43;12.73;;;11.33;;
19179;SDS011;9722;48.754;8.868;2022-12-10T16:46:03;13.03;;;11.67;;
19179;SDS011;9722;48.754;8.868;2022-12-10T16:49:24;15.90;;;12.93;;
19179;SDS011;9722;48.754;8.868;2022-12-10T16:52:44;15.93;;;13.17;;
19179;SDS011;9722;48.754;8.868;2022-12-10T16:56:06;18.40;;;14.23;;
19179;SDS011;9722;48.754;8.868;2022-12-10T16:59:30;14.80;;;13.23;;
19179;SDS011;9722;48.754;8.868;2022-12-10T17:02:51;13.77;;;12.30;;
19179;SDS011;9722;48.754;8.868;2022-12-10T17:06:12;15.17;;;12.87;;
19179;SDS011;9722;48.754;8.868;2022-12-10T17:09:33;14.60;;;13.10;;
19179;SDS011;9722;48.754;8.868;2022-12-10T17:12:53;14.20;;;10.63;;
19179;SDS011;9722;48.754;8.868;2022-12-10T17:16:15;13.07;;;10.63;;
19179;SDS011;9722;48.754;8.868;2022-12-10T17:19:39;11.33;;;10.13;;
19179;SDS011;9722;48.754;8.868;2022-12-10T17:23:01;13.33;;;11.07;;
19179;SDS011;9722;48.754;8.868;2022-12-10T17:26:23;13.67;;;11.83;;
19179;SDS011;9722;48.754;8.868;2022-12-10T17:29:47;13.63;;;11.40;;
19179;SDS011;9722;48.754;8.868;2022-12-10T17:33:14;12.73;;;10.13;;
19179;SDS011;9722;48.754;8.868;2022-12-10T17:36:35;12.63;;;10.97;;
19179;SDS011;9722;48.754;8.868;2022-12-10T17:39:56;13.07;;;11.03;;
19179;SDS011;9722;48.754;8.868;2022-12-10T17:43:16;13.97;;;10.27;;
19179;SDS011;9722;48.754;8.868;2022-12-10T17:46:37;13.03;;;10.53;;
19179;SDS011;9722;48.754;8.868;2022-12-10T17:49:58;11.17;;;9.93;;
19179;SDS011;9722;48.754;8.868;2022-12-10T17:53:21;14.37;;;11.33;;
19179;SDS011;9722;48.754;8.868;2022-12-10T17:56:41;13.13;;;11.23;;
19179;SDS011;9722;48.754;8.868;2022-12-10T18:00:10;12.03;;;10.73;;
19179;SDS011;9722;48.754;8.868;2022-12-10T18:03:36;13.00;;;11.80;;
19179;SDS011;9722;48.754;8.868;2022-12-10T18:06:57;11.80;;;10.60;;
19179;SDS011;9722;48.754;8.868;2022-12-10T18:10:19;12.00;;;10.70;;
19179;SDS011;9722;48.754;8.868;2022-12-10T18:13:41;13.00;;;10.37;;
19179;SDS011;9722;48.754;8.868;2022-12-10T18:17:02;13.50;;;10.73;;
19179;SDS011;9722;48.754;8.868;2022-12-10T18:23:46;23.50;;;13.87;;
19179;SDS011;9722;48.754;8.868;2022-12-10T18:27:09;17.27;;;12.73;;
19179;SDS011;9722;48.754;8.868;2022-12-10T18:30:30;13.33;;;11.37;;
19179;SDS011;9722;48.754;8.868;2022-12-10T18:33:52;11.43;;;10.13;;
19179;SDS011;9722;48.754;8.868;2022-12-10T18:37:14;11.70;;;10.37;;
19179;SDS011;9722;48.754;8.868;2022-12-10T18:40:35;12.30;;;11.03;;
19179;SDS011;9722;48.754;8.868;2022-12-10T18:43:55;12.97;;;10.73;;
19179;SDS011;9722;48.754;8.868;2022-12-10T18:47:16;11.90;;;10.70;;
19179;SDS011;9722;48.754;8.868;2022-12-10T18:50:36;11.90;;;10.70;;
19179;SDS011;9722;48.754;8.868;2022-12-10T18:53:57;11.37;;;10.17;;
19179;SDS011;9722;48.754;8.868;2022-12-10T18:57:18;13.07;;;11.50;;
19179;SDS011;9722;48.754;8.868;2022-12-10T19:00:38;13.53;;;11.43;;
19179;SDS011;9722;48.754;8.868;2022-12-10T19:03:59;13.47;;;11.53;;
19179;SDS011;9722;48.754;8.868;2022-12-10T19:07:20;11.63;;;10.47;;
19179;SDS011;9722;48.754;8.868;2022-12-10T19:10:40;14.30;;;12.23;;
19179;SDS011;9722;48.754;8.868;2022-12-10T19:14:01;13.37;;;11.97;;
19179;SDS011;9722;48.754;8.868;2022-12-10T19:17:22;13.77;;;12.37;;
19179;SDS011;9722;48.754;8.868;2022-12-10T19:20:42;19.70;;;14.53;;
19179;SDS011;9722;48.754;8.868;2022-12-10T19:24:03;14.23;;;12.33;;
19179;SDS011;9722;48.754;8.868;2022-12-10T19:27:24;18.37;;;14.43;;
19179;SDS011;9722;48.754;8.868;2022-12-10T19:30:44;12.83;;;11.50;;
19179;SDS011;9722;48.754;8.868;2022-12-10T19:34:05;13.73;;;10.23;;
19179;SDS011;9722;48.754;8.868;2022-12-10T19:37:26;12.30;;;11.03;;
19179;SDS011;9722;48.754;8.868;2022-12-10T19:40:49;12.00;;;10.10;;
19179;SDS011;9722;48.754;8.868;2022-12-10T19:44:10;14.27;;;11.47;;
19179;SDS011;9722;48.754;8.868;2022-12-10T19:47:31;13.97;;;12.23;;
19179;SDS011;9722;48.754;8.868;2022-12-10T19:50:51;12.57;;;10.53;;
19179;SDS011;9722;48.754;8.868;2022-12-10T19:54:12;14.37;;;11.53;;
19179;SDS011;9722;48.754;8.868;2022-12-10T19:57:32;13.80;;;11.50;;
19179;SDS011;9722;48.754;8.868;2022-12-10T20:00:53;13.83;;;11.27;;
19179;SDS011;9722;48.754;8.868;2022-12-10T20:04:15;13.77;;;11.67;;
19179;SDS011;9722;48.754;8.868;2022-12-10T20:07:36;14.47;;;12.33;;
19179;SDS011;9722;48.754;8.868;2022-12-10T20:10:56;15.40;;;11.80;;
19179;SDS011;9722;48.754;8.868;2022-12-10T20:14:17;11.57;;;10.30;;
19179;SDS011;9722;48.754;8.868;2022-12-10T20:17:38;11.83;;;9.07;;
19179;SDS011;9722;48.754;8.868;2022-12-10T20:21:00;9.93;;;8.97;;
19179;SDS011;9722;48.754;8.868;2022-12-10T20:24:20;11.50;;;10.30;;
19179;SDS011;9722;48.754;8.868;2022-12-10T20:27:41;12.10;;;10.77;;
19179;SDS011;9722;48.754;8.868;2022-12-10T20:31:02;13.93;;;11.90;;
19179;SDS011;9722;48.754;8.868;2022-12-10T20:34:23;12.53;;;11.03;;
19179;SDS011;9722;48.754;8.868;2022-12-10T20:37:45;12.30;;;10.73;;
19179;SDS011;9722;48.754;8.868;2022-12-10T20:41:07;12.63;;;10.90;;
19179;SDS011;9722;48.754;8.868;2022-12-10T20:44:29;13.87;;;11.53;;
19179;SDS011;9722;48.754;8.868;2022-12-10T20:47:50;14.03;;;10.80;;
19179;SDS011;9722;48.754;8.868;2022-12-10T20:51:11;13.40;;;11.00;;
19179;SDS011;9722;48.754;8.868;2022-12-10T20:54:31;11.80;;;10.60;;
19179;SDS011;9722;48.754;8.868;2022-12-10T20:57:52;11.60;;;10.23;;
19179;SDS011;9722;48.754;8.868;2022-12-10T21:01:12;11.40;;;10.23;;
19179;SDS011;9722;48.754;8.868;2022-12-10T21:04:33;14.70;;;11.20;;
19179;SDS011;9722;48.754;8.868;2022-12-10T21:07:53;10.83;;;9.73;;
19179;SDS011;9722;48.754;8.868;2022-12-10T21:11:14;13.67;;;9.80;;
19179;SDS011;9722;48.754;8.868;2022-12-10T21:14:35;19.70;;;12.70;;
19179;SDS011;9722;48.754;8.868;2022-12-10T21:17:55;17.20;;;12.27;;
19179;SDS011;9722;48.754;8.868;2022-12-10T21:21:17;19.67;;;12.20;;
19179;SDS011;9722;48.754;8.868;2022-12-10T21:24:38;24.00;;;16.33;;
19179;SDS011;9722;48.754;8.868;2022-12-10T21:27:59;26.53;;;16.23;;
19179;SDS011;9722;48.754;8.868;2022-12-10T21:31:23;20.60;;;13.77;;
19179;SDS011;9722;48.754;8.868;2022-12-10T21:34:44;13.73;;;9.77;;
19179;SDS011;9722;48.754;8.868;2022-12-10T21:38:05;8.17;;;7.37;;
19179;SDS011;9722;48.754;8.868;2022-12-10T21:41:26;12.87;;;8.87;;
19179;SDS011;9722;48.754;8.868;2022-12-10T21:45:05;13.87;;;9.93;;
19179;SDS011;9722;48.754;8.868;2022-12-10T21:48:26;7.67;;;6.97;;
19179;SDS011;9722;48.754;8.868;2022-12-10T21:51:46;12.63;;;8.77;;
19179;SDS011;9722;48.754;8.868;2022-12-10T21:55:07;10.57;;;7.83;;
19179;SDS011;9722;48.754;8.868;2022-12-10T21:58:28;7.83;;;7.07;;
19179;SDS011;9722;48.754;8.868;2022-12-10T22:01:49;5.80;;;5.13;;
19179;SDS011;9722;48.754;8.868;2022-12-10T22:05:11;6.63;;;6.00;;
19179;SDS011;9722;48.754;8.868;2022-12-10T22:08:32;6.13;;;5.20;;
19179;SDS011;9722;48.754;8.868;2022-12-10T22:11:53;10.83;;;8.67;;